aviador You're here:

KS39 Decoded Metar

in
Report Time2018-07-22 15:35:00
UTC Time2018-07-22 15:56:10
Flight Rules vfr VFR
Wind080° at 03 kt
W.Rank080° ranks 31
Current wind is below 080° avg. (4.5)
Visibility9999 m
Phenomena:N/A
Clouds:N/A
Expected CloudBase > 6,400 ft AGL from Temp-Dew spread
CeilingNone
Temp18°C
Dew Point02°C (34% RH)
AAT15.2°C
QNH1024 hPa
Raw Report
KS39 221535Z AUTO 08003KT 10SM CLR 18/02 A3025 RMK AO2=

Extra information for KS39:More info

Social comments